Time;durP1;ratioP1;P1;durP2;ratioP2;P2;SDS_P1;SDS_P2;PMS_P1;PMS_P2;Temp;Humidity;BMP_temperature;BMP_pressure;BME280_temperature;BME280_humidity;BME280_pressure;Samples;Min_cycle;Max_cycle;Signal;HPM_P1;HPM_P2
2022/02/26 00:17:23;;;;;;;15.43;6.10;;;;;;;2.95;89.45;101840.31;6163160;22;20720;-95
2022/02/26 00:20:09;;;;;;;;;;;;;;;;;;;;;
2022/02/26 00:22:55;;;;;;;16.05;6.43;;;;;;;2.91;88.98;101846.38;4992559;28;20089;-96
2022/02/26 00:25:25;;;;;;;15.90;6.72;;;;;;;2.53;89.54;101788.53;4990731;28;20125;-96
2022/02/26 00:45:15;;;;;;;15.73;6.25;;;;;;;2.50;89.48;101811.19;4920483;29;20055;-96
2022/02/26 00:52:25;;;;;;;17.25;6.90;;;;;;;2.69;89.43;101855.78;4939095;29;20087;-96
2022/02/26 01:14:50;;;;;;;;;;;;;;;;;;;;;
2022/02/26 01:43:52;;;;;;;;;;;;;;;;;;;;;
2022/02/26 01:47:06;;;;;;;;;;;;;;;;;;;;;
2022/02/26 01:54:12;;;;;;;22.25;9.10;;;;;;;2.70;90.91;101907.22;4908872;29;20528;-96
2022/02/26 01:57:38;;;;;;;17.52;8.20;;;;;;;2.71;90.63;101910.72;4917494;29;20084;-96
2022/02/26 02:04:09;;;;;;;18.92;9.13;;;;;;;2.46;90.69;101876.50;4961770;29;20137;-95
2022/02/26 02:11:33;;;;;;;15.85;7.95;;;;;;;2.67;89.95;101911.59;4904733;29;20056;-96
2022/02/26 02:22:18;;;;;;;;;;;;;;;;;;;;;
2022/02/26 02:32:43;;;;;;;16.77;8.80;;;;;;;2.42;90.67;101919.16;4977292;28;20078;-96
2022/02/26 02:36:23;;;;;;;;;;;;;;;;;;;;;
2022/02/26 02:40:01;;;;;;;;;;;;;;;;;;;;;
2022/02/26 02:43:48;;;;;;;20.95;8.60;;;;;;;2.68;89.78;101955.16;4794850;29;20119;-96
2022/02/26 02:55:36;;;;;;;;;;;;;;;;;;;;;
2022/02/26 03:07:09;;;;;;;;;;;;;;;;;;;;;
2022/02/26 03:15:05;;;;;;;;;;;;;;;;;;;;;
2022/02/26 04:11:50;;;;;;;;;;;;;;;;;;;;;
2022/02/26 04:23:12;;;;;;;;;;;;;;;;;;;;;
2022/02/26 08:50:01;;;;;;;19.00;5.93;;;;;;;5.79;68.81;102201.72;6114829;22;3284891;-93
2022/02/26 08:52:31;;;;;;;19.45;6.65;;;;;;;6.32;66.54;102246.50;6236787;23;20022;-94
2022/02/26 08:55:04;;;;;;;20.02;5.18;;;;;;;6.17;64.73;102201.78;6264936;23;20036;-95
2022/02/26 09:00:31;;;;;;;14.23;4.22;;;;;;;7.46;61.44;102219.88;6260494;22;20018;-95
2022/02/26 09:03:07;;;;;;;14.50;4.45;;;;;;;8.36;58.82;102272.06;6255799;22;20418;-94
2022/02/26 09:05:51;;;;;;;11.48;3.72;;;;;;;8.22;56.60;102219.34;6283289;22;20024;-94
2022/02/26 09:08:30;;;;;;;14.32;3.80;;;;;;;8.82;56.00;102276.94;6281343;22;20023;-94
2022/02/26 09:11:02;;;;;;;15.20;4.53;;;;;;;8.73;55.60;102219.81;6287650;22;20018;-92
2022/02/26 09:13:47;;;;;;;17.85;3.85;;;;;;;8.95;52.68;102252.16;6286223;22;20390;-93
2022/02/26 09:16:22;;;;;;;14.00;3.47;;;;;;;8.46;54.26;102235.91;6289400;22;20015;-92
2022/02/26 10:01:23;;;;;;;15.75;2.58;;;;;;;8.49;52.69;102304.53;6267814;22;20038;-89
2022/02/26 10:04:14;;;;;;;11.55;2.45;;;;;;;8.34;56.74;102258.03;6188694;23;20020;-94
2022/02/26 10:07:20;;;;;;;9.25;2.58;;;;;;;8.41;55.77;102238.59;6190409;23;20024;-93
2022/02/26 10:09:55;;;;;;;17.33;3.13;;;;;;;8.56;52.45;102254.28;6164489;23;20017;-94
2022/02/26 10:12:36;;;;;;;10.75;2.42;;;;;;;8.96;53.36;102315.56;6165312;23;20018;-95
2022/02/26 10:15:40;;;;;;;16.40;2.58;;;;;;;8.92;52.15;102273.31;6158781;23;20017;-94
2022/02/26 10:18:25;;;;;;;13.00;2.70;;;;;;;8.92;53.35;102290.06;6163684;23;20021;-94
2022/02/26 10:21:32;;;;;;;9.02;2.72;;;;;;;8.78;51.80;102297.25;6135264;23;20055;-94
2022/02/26 10:24:36;;;;;;;;;;;;;;;;;;;;;
2022/02/26 10:27:25;;;;;;;12.05;1.95;;;;;;;8.43;52.64;102282.56;6246370;22;20317;-94
2022/02/26 10:33:07;;;;;;;9.48;2.33;;;;;;;8.29;51.21;102308.16;6232724;23;20019;-93
2022/02/26 10:36:35;;;;;;;8.75;1.88;;;;;;;7.92;52.42;102281.13;6163468;23;20283;-92
2022/02/26 10:39:05;;;;;;;12.35;1.95;;;;;;;7.85;51.44;102284.72;6137814;23;20069;-93
2022/02/26 10:41:45;;;;;;;5.75;1.77;;;;;;;8.10;50.87;102285.44;6162765;23;20120;-96
2022/02/26 10:45:33;;;;;;;10.48;1.83;;;;;;;8.33;49.63;102240.44;6167390;23;20044;-94
2022/02/26 10:48:21;;;;;;;10.65;2.30;;;;;;;9.14;46.58;102264.25;6186226;22;20016;-94
2022/02/26 10:51:17;;;;;;;9.32;2.20;;;;;;;9.10;48.66;102308.38;6278853;22;20016;-92
2022/02/26 10:53:53;;;;;;;10.25;2.03;;;;;;;8.72;49.59;102313.13;6256917;22;20015;-94
2022/02/26 10:56:49;;;;;;;9.18;1.60;;;;;;;8.34;48.37;102235.13;6284949;22;20035;-94
2022/02/26 10:59:39;;;;;;;10.43;2.37;;;;;;;8.38;49.26;102254.44;6281604;22;20035;-95
2022/02/26 11:02:25;;;;;;;11.60;2.33;;;;;;;9.15;48.86;102248.38;6282035;22;20015;-96
2022/02/26 11:13:46;;;;;;;;;;;;;;;;;;;;;
2022/02/26 11:16:38;;;;;;;9.63;1.75;;;;;;;12.79;37.96;102241.41;6247195;22;20024;-94
2022/02/26 11:20:09;;;;;;;;;;;;;;;;;;;;;
2022/02/26 11:23:15;;;;;;;7.72;1.80;;;;;;;12.30;38.46;102245.34;6221927;22;20024;-96
2022/02/26 11:26:18;;;;;;;6.30;1.95;;;;;;;12.34;39.50;102278.03;6254475;23;20020;-95
2022/02/26 11:29:30;;;;;;;8.68;2.30;;;;;;;12.25;39.79;102264.97;6251876;22;20034;-96
2022/02/26 11:36:19;;;;;;;8.25;2.42;;;;;;;10.49;43.05;102225.31;6246164;23;20047;-96
2022/02/26 11:39:43;;;;;;;7.25;2.00;;;;;;;10.32;44.40;102260.91;6045901;23;20019;-95
2022/02/26 11:42:49;;;;;;;12.32;2.30;;;;;;;10.06;45.61;102269.25;6152631;23;20069;-92
2022/02/26 11:45:33;;;;;;;10.88;2.63;;;;;;;9.48;45.83;102219.78;6161583;23;20109;-91
2022/02/26 11:48:08;;;;;;;9.70;2.92;;;;;;;9.25;46.20;102214.81;6160567;23;20112;-92
2022/02/26 11:51:03;;;;;;;;;;;;;;;;;;;;;
2022/02/26 11:54:05;;;;;;;;;;;;;;;;;;;;;
2022/02/26 11:57:01;;;;;;;13.25;2.55;;;;;;;8.68;48.00;102227.75;6138846;23;20074;-95
2022/02/26 11:59:50;;;;;;;10.32;2.40;;;;;;;8.17;48.82;102197.44;6160970;23;20029;-94
2022/02/26 12:02:26;;;;;;;14.25;2.70;;;;;;;8.38;50.08;102252.69;6166669;23;20016;-94
2022/02/26 12:05:10;;;;;;;12.38;2.30;;;;;;;8.36;50.54;102224.53;6161445;23;20017;-94
2022/02/26 12:07:52;;;;;;;9.23;2.22;;;;;;;8.23;49.19;102191.19;6164708;23;20552;-94
2022/02/26 12:10:38;;;;;;;16.80;2.70;;;;;;;8.30;49.89;102209.63;6228860;23;20035;-94
2022/02/26 12:13:46;;;;;;;9.88;2.60;;;;;;;8.52;49.24;102228.78;6257057;22;20545;-94
2022/02/26 12:16:39;;;;;;;14.55;2.83;;;;;;;8.79;48.69;102235.59;6281680;22;20055;-94
2022/02/26 12:19:22;;;;;;;15.50;2.47;;;;;;;8.96;48.92;102243.34;6281908;22;20012;-94
2022/02/26 12:22:08;;;;;;;10.90;2.70;;;;;;;8.75;49.43;102192.47;6258083;22;20023;-95
2022/02/26 12:24:54;;;;;;;11.40;2.42;;;;;;;9.10;47.61;102217.63;6281412;22;20027;-93
2022/02/26 12:27:37;;;;;;;11.52;2.22;;;;;;;9.28;47.12;102201.56;6282272;22;20073;-94
2022/02/26 12:30:14;;;;;;;9.25;2.13;;;;;;;9.53;46.61;102175.63;6282648;22;20070;-93
2022/02/26 12:33:03;;;;;;;9.95;2.50;;;;;;;9.95;45.64;102170.59;6281498;22;20024;-94
2022/02/26 12:35:37;;;;;;;12.65;2.45;;;;;;;10.96;43.98;102234.16;6256290;22;20020;-93
2022/02/26 12:38:20;;;;;;;11.35;2.92;;;;;;;11.49;43.20;102209.16;6287025;22;20026;-94
2022/02/26 12:41:26;;;;;;;11.57;2.60;;;;;;;11.64;42.35;102191.19;6277649;22;20020;-94
2022/02/26 12:43:59;;;;;;;8.02;2.17;;;;;;;12.25;40.39;102215.38;6257499;22;20478;-93
2022/02/26 12:46:33;;;;;;;9.10;2.40;;;;;;;12.31;39.56;102222.31;6285804;22;20020;-93
2022/02/26 12:49:07;;;;;;;9.85;2.60;;;;;;;12.80;39.11;102157.22;6284507;22;20035;-92
2022/02/26 12:51:41;;;;;;;8.68;2.30;;;;;;;13.54;37.16;102163.00;6258019;22;20023;-92
2022/02/26 12:54:12;;;;;;;11.05;2.88;;;;;;;12.63;38.10;102173.63;6285562;22;20035;-92
2022/02/26 12:56:43;;;;;;;8.07;1.80;;;;;;;11.98;39.02;102197.44;6283832;22;20038;-92
2022/02/26 12:59:21;;;;;;;8.40;2.08;;;;;;;11.17;41.17;102143.59;6283860;22;20097;-93
2022/02/26 13:01:53;;;;;;;9.52;2.33;;;;;;;12.21;39.45;102159.72;6284270;22;20028;-92
2022/02/26 13:04:29;;;;;;;9.85;2.30;;;;;;;13.85;36.69;102157.56;6285402;22;20019;-92
2022/02/26 13:07:08;;;;;;;10.48;2.13;;;;;;;15.17;34.23;102153.81;6286689;22;20032;-93
2022/02/26 13:09:51;;;;;;;12.13;2.38;;;;;;;15.85;32.61;102153.81;6282180;22;20019;-92
2022/02/26 13:12:28;;;;;;;7.68;1.98;;;;;;;16.55;30.99;102118.69;6282687;22;20028;-92
2022/02/26 13:15:16;;;;;;;8.68;2.28;;;;;;;17.57;30.05;102153.25;6282167;22;20023;-92
2022/02/26 13:17:48;;;;;;;8.10;2.25;;;;;;;18.39;27.86;102150.03;6282546;22;20085;-94
2022/02/26 13:20:23;;;;;;;7.88;2.60;;;;;;;18.84;27.04;102114.56;6288497;22;20079;-93
2022/02/26 13:22:57;;;;;;;9.00;2.67;;;;;;;20.18;25.86;102152.59;6289411;22;20035;-93
2022/02/26 13:25:37;;;;;;;7.68;2.30;;;;;;;20.28;25.30;102134.09;6286908;22;20106;-92
2022/02/26 13:28:06;;;;;;;8.65;2.33;;;;;;;19.82;25.34;102161.00;6284051;22;20021;-93
2022/02/26 13:30:36;;;;;;;9.07;2.20;;;;;;;20.15;25.42;102141.13;6285202;22;20095;-94
2022/02/26 13:33:12;;;;;;;5.68;1.85;;;;;;;20.46;23.79;102116.84;6261442;22;20467;-93
2022/02/26 13:35:50;;;;;;;9.18;2.10;;;;;;;20.38;24.30;102119.16;6285329;22;20016;-92
2022/02/26 13:38:21;;;;;;;8.30;1.80;;;;;;;18.52;25.40;102124.28;6283192;22;20334;-91
2022/02/26 13:40:51;;;;;;;7.47;2.20;;;;;;;17.03;27.38;102123.66;6256188;22;20073;-93
2022/02/26 13:43:24;;;;;;;8.05;2.00;;;;;;;16.04;29.46;102113.84;6286678;22;20020;-93
2022/02/26 13:45:55;;;;;;;9.32;1.70;;;;;;;15.52;30.64;102131.97;6258946;22;20016;-93
2022/02/26 13:48:42;;;;;;;7.70;1.98;;;;;;;13.51;33.37;102096.59;6282457;22;20099;-92
2022/02/26 13:51:09;;;;;;;6.72;1.95;;;;;;;12.91;34.75;102097.50;6250460;22;20093;-93
2022/02/26 13:53:40;;;;;;;6.55;1.77;;;;;;;13.38;33.83;102142.25;6279712;22;20046;-92
2022/02/26 13:56:08;;;;;;;8.25;1.90;;;;;;;13.24;34.84;102155.97;6277041;22;20016;-92
2022/02/26 13:58:36;;;;;;;10.15;2.13;;;;;;;12.72;35.24;102093.66;6276888;22;20030;-92
2022/02/26 14:01:05;;;;;;;11.25;2.60;;;;;;;12.57;36.73;102133.97;6279864;22;20031;-94
2022/02/26 14:03:54;;;;;;;9.95;3.33;;;;;;;12.45;36.79;102108.56;6282905;22;20543;-92
2022/02/26 14:06:34;;;;;;;7.60;1.95;;;;;;;13.41;36.59;102086.25;6283548;22;20039;-92
2022/02/26 14:09:39;;;;;;;8.13;2.03;;;;;;;15.09;32.49;102100.78;6283734;22;20023;-92
2022/02/26 14:12:27;;;;;;;8.68;2.30;;;;;;;15.44;31.59;102070.84;6245729;22;20420;-92
2022/02/26 14:15:08;;;;;;;10.15;1.90;;;;;;;15.93;29.98;102067.97;6282409;22;20382;-92
2022/02/26 14:17:54;;;;;;;8.23;1.70;;;;;;;16.22;29.98;102080.94;6283145;22;20046;-92
2022/02/26 14:20:41;;;;;;;4.72;1.63;;;;;;;16.59;30.21;102114.97;6281091;22;20027;-91
2022/02/26 14:23:14;;;;;;;7.97;2.08;;;;;;;16.16;29.93;102075.03;6258493;22;20019;-92
2022/02/26 14:26:09;;;;;;;5.53;1.60;;;;;;;14.87;32.34;102092.69;6282891;22;20055;-92
2022/02/26 14:28:50;;;;;;;7.57;2.20;;;;;;;13.98;33.29;102086.16;6281596;22;20054;-92
2022/02/26 14:31:56;;;;;;;9.68;2.22;;;;;;;12.82;35.43;102115.53;6282059;22;20023;-92
2022/02/26 14:34:33;;;;;;;10.10;2.28;;;;;;;11.18;37.93;102039.22;6284797;22;20135;-92
2022/02/26 14:37:06;;;;;;;7.28;1.98;;;;;;;10.72;40.71;102087.09;6283845;22;20076;-92
2022/02/26 14:39:42;;;;;;;7.93;1.83;;;;;;;10.61;40.79;102088.22;6283607;22;20019;-91
2022/02/26 14:42:15;;;;;;;8.27;2.08;;;;;;;10.60;40.19;102067.94;6257735;22;20031;-91
2022/02/26 14:44:43;;;;;;;8.00;1.67;;;;;;;10.92;41.00;102104.34;6284581;22;20020;-92
2022/02/26 14:47:40;;;;;;;9.02;1.80;;;;;;;10.83;41.29;102092.19;6283979;22;20030;-92
2022/02/26 14:50:10;;;;;;;9.63;2.05;;;;;;;10.71;40.76;102076.53;6283835;22;20020;-91
2022/02/26 14:52:41;;;;;;;9.45;2.08;;;;;;;10.50;41.45;102075.19;6284023;22;20042;-91
2022/02/26 14:55:12;;;;;;;6.85;1.83;;;;;;;10.30;41.99;102090.59;6256251;22;20015;-92
2022/02/26 14:57:45;;;;;;;7.68;1.63;;;;;;;10.00;42.18;102063.75;6281237;22;20026;-94
2022/02/26 15:00:25;;;;;;;8.75;2.28;;;;;;;9.93;42.88;102080.63;6285003;22;20008;-96
2022/02/26 15:02:54;;;;;;;9.85;1.63;;;;;;;9.73;43.71;102067.75;6285634;22;20020;-92
2022/02/26 15:05:39;;;;;;;9.43;2.00;;;;;;;9.33;44.18;102054.28;6286380;22;20023;-94
2022/02/26 15:08:24;;;;;;;8.98;2.03;;;;;;;9.24;44.73;102072.94;6261065;22;20023;-92
2022/02/26 15:10:58;;;;;;;9.77;1.75;;;;;;;8.95;45.48;102091.88;6283537;22;20335;-92
2022/02/26 15:13:29;;;;;;;8.15;1.75;;;;;;;8.30;46.12;102039.81;6287372;22;20073;-93
2022/02/26 15:16:21;;;;;;;12.63;2.28;;;;;;;8.26;47.01;102043.38;6260341;22;20020;-91
2022/02/26 15:19:14;;;;;;;;;;;;;;;8.34;47.84;102094.38;6192979;23;20028;-93
2022/02/26 15:21:56;;;;;;;8.10;1.77;;;;;;;8.01;47.82;102067.41;6191236;23;20324;-92
2022/02/26 15:24:33;;;;;;;6.40;1.90;;;;;;;7.71;48.96;102059.78;6189973;23;20013;-91
2022/02/26 15:27:01;;;;;;;12.27;2.03;;;;;;;7.55;49.60;102052.88;6188739;23;20084;-93
2022/02/26 15:29:31;;;;;;;8.80;1.90;;;;;;;7.36;49.91;102044.25;6190300;23;20017;-90
2022/02/26 15:32:04;;;;;;;9.60;2.17;;;;;;;7.22;50.08;102051.38;6187992;23;20447;-91
2022/02/26 15:34:33;;;;;;;8.00;1.95;;;;;;;7.46;50.75;102081.94;6188055;23;20028;-90
2022/02/26 15:37:07;;;;;;;8.30;1.67;;;;;;;7.28;50.42;102043.41;6219737;22;20340;-91
2022/02/26 15:39:54;;;;;;;10.55;2.20;;;;;;;7.29;50.72;102040.75;6260964;22;20030;-91
2022/02/26 15:42:29;;;;;;;8.20;2.13;;;;;;;7.26;50.92;102040.78;6255732;22;20071;-92
2022/02/26 15:45:05;;;;;;;;;;;;;;;7.47;50.75;102067.88;6281668;22;20087;-93
2022/02/26 15:47:49;;;;;;;8.00;2.10;;;;;;;7.03;50.92;102001.44;6255833;22;19919;-91
2022/02/26 15:50:19;;;;;;;10.32;2.05;;;;;;;7.05;50.46;102001.44;6283003;22;20018;-93
2022/02/26 15:52:52;;;;;;;10.57;2.45;;;;;;;7.18;50.89;102024.16;6283491;22;20467;-92
2022/02/26 15:55:26;;;;;;;10.40;2.80;;;;;;;6.95;50.62;102012.88;6279935;22;20103;-93
2022/02/26 15:58:00;;;;;;;10.13;2.63;;;;;;;7.02;51.44;102039.19;6278387;22;20075;-92
2022/02/26 16:00:29;;;;;;;11.32;2.28;;;;;;;6.96;52.06;102039.22;6280555;22;20046;-92
2022/02/26 16:03:08;;;;;;;6.05;1.65;;;;;;;6.85;52.14;102016.47;6279742;22;20027;-92
2022/02/26 16:05:41;;;;;;;10.80;1.73;;;;;;;6.78;51.55;102005.09;6281292;22;20311;-92
2022/02/26 16:08:24;;;;;;;8.25;1.55;;;;;;;6.78;51.74;102002.47;6278668;22;20016;-92
2022/02/26 16:11:06;;;;;;;9.25;2.20;;;;;;;7.07;51.85;102065.50;6214965;23;20039;-92
2022/02/26 16:13:37;;;;;;;7.80;1.75;;;;;;;7.02;51.92;102062.03;6192019;23;20080;-92
2022/02/26 16:16:16;;;;;;;6.85;2.00;;;;;;;6.96;51.72;102046.25;6217652;23;20025;-92
2022/02/26 16:18:52;;;;;;;6.10;1.63;;;;;;;6.81;51.86;102035.78;6216552;23;20024;-92
2022/02/26 16:21:21;;;;;;;6.57;1.50;;;;;;;6.85;51.79;102032.28;6212201;23;20585;-93
2022/02/26 16:23:52;;;;;;;10.73;2.15;;;;;;;6.77;51.24;102024.41;6214323;23;20017;-94
2022/02/26 16:26:28;;;;;;;9.68;1.90;;;;;;;6.85;51.58;102048.94;6215121;23;20028;-92
2022/02/26 16:29:10;;;;;;;6.28;1.92;;;;;;;6.48;51.56;101995.59;6216450;23;20027;-92
2022/02/26 16:31:47;;;;;;;9.00;2.13;;;;;;;6.44;52.05;101998.28;6215112;23;20031;-92
2022/02/26 16:34:21;;;;;;;8.30;1.73;;;;;;;6.41;52.11;102001.78;6190197;23;20020;-92
2022/02/26 16:36:56;;;;;;;10.05;2.53;;;;;;;6.52;52.40;102025.41;6217176;23;20016;-92
2022/02/26 16:39:38;;;;;;;7.10;1.67;;;;;;;6.46;53.59;102034.19;6213131;23;20016;-92
2022/02/26 16:42:22;;;;;;;11.82;2.05;;;;;;;6.40;54.10;102025.47;6255817;22;20024;-93
2022/02/26 16:44:52;;;;;;;9.90;2.15;;;;;;;6.49;54.55;102062.25;6298114;22;20004;-92
2022/02/26 16:47:26;;;;;;;8.35;1.77;;;;;;;6.15;54.77;102016.78;6293889;22;20053;-92
2022/02/26 16:50:08;;;;;;;8.27;2.08;;;;;;;6.05;54.79;102004.53;6280262;22;20020;-92
2022/02/26 16:53:17;;;;;;;9.23;1.85;;;;;;;5.89;55.11;102009.84;6279950;22;20012;-91
2022/02/26 16:55:48;;;;;;;10.65;2.33;;;;;;;6.01;55.30;102042.22;6254446;22;20049;-92
2022/02/26 16:58:51;;;;;;;7.65;2.28;;;;;;;6.15;54.92;102074.63;6281646;22;20020;-92
2022/02/26 17:01:55;;;;;;;;;;;;;;;;;;;;;
2022/02/26 17:05:27;;;;;;;8.45;1.95;;;;;;;5.61;55.56;102026.50;6287795;22;20016;-93
2022/02/26 17:08:19;;;;;;;8.90;2.00;;;;;;;5.84;56.21;102085.16;6266825;22;20042;-94
2022/02/26 18:26:24;;;;;;;15.85;5.30;;;;;;;5.17;63.15;102102.66;6172821;23;20107;-94
2022/02/26 18:29:06;;;;;;;;;;;;;;;5.15;62.99;102107.88;6190317;22;20020;-93
2022/02/26 18:31:49;;;;;;;12.63;4.40;;;;;;;4.94;63.19;102071.06;6234749;23;20370;-93
2022/02/26 18:34:18;;;;;;;13.23;3.60;;;;;;;4.86;63.46;102065.81;6256987;23;20070;-94
2022/02/26 18:36:49;;;;;;;11.55;3.22;;;;;;;4.97;63.94;102083.31;6286634;22;20024;-93
2022/02/26 18:39:34;;;;;;;;;;;;;;;;;;;;;
2022/02/26 18:42:17;;;;;;;16.03;3.90;;;;;;;4.93;63.94;102090.31;6278918;22;20099;-93
2022/02/26 18:44:59;;;;;;;12.50;3.08;;;;;;;4.82;64.35;102081.53;6264603;22;20022;-93
2022/02/26 18:47:35;;;;;;;14.32;3.85;;;;;;;4.72;64.31;102077.13;6291500;22;20071;-93
2022/02/26 18:50:39;;;;;;;9.77;3.67;;;;;;;4.81;65.03;102098.16;6216654;22;20030;-92
2022/02/26 18:53:19;;;;;;;13.63;4.50;;;;;;;4.81;64.74;102106.03;6265809;22;20067;-92
2022/02/26 18:55:49;;;;;;;11.52;4.53;;;;;;;4.76;65.23;102099.88;6293043;22;20083;-92
2022/02/26 18:58:30;;;;;;;15.65;4.43;;;;;;;4.79;64.81;102092.00;6289485;22;20020;-93
2022/02/26 19:03:57;;;;;;;17.27;5.38;;;;;;;4.78;64.56;102085.88;6248727;22;20027;-92
2022/02/26 19:06:25;;;;;;;12.82;5.43;;;;;;;4.69;64.98;102059.63;6286099;22;20075;-93
2022/02/26 19:09:05;;;;;;;18.27;5.93;;;;;;;4.98;65.04;102112.22;6266939;22;20023;-94
2022/02/26 19:11:36;;;;;;;13.85;5.55;;;;;;;5.07;64.51;102121.84;6289825;22;20020;-93
2022/02/26 19:14:05;;;;;;;17.73;6.03;;;;;;;4.68;65.06;102064.84;6280399;22;20031;-92
2022/02/26 19:16:53;;;;;;;21.60;6.97;;;;;;;5.04;65.09;102119.22;6252197;22;20595;-91
2022/02/26 19:19:24;;;;;;;14.32;5.97;;;;;;;4.89;65.64;102106.91;6278838;22;20027;-92
2022/02/26 19:21:53;;;;;;;15.20;6.35;;;;;;;4.82;64.94;102098.16;6279899;22;20610;-92
2022/02/26 19:24:20;;;;;;;16.52;6.18;;;;;;;4.95;65.10;102122.69;6253311;22;20019;-91
2022/02/26 19:26:49;;;;;;;14.68;6.57;;;;;;;4.72;64.92;102077.13;6254509;22;20023;-92
2022/02/26 19:29:34;;;;;;;15.55;5.85;;;;;;;4.81;65.55;102108.66;6253432;22;20015;-92
2022/02/26 19:32:03;;;;;;;15.93;6.22;;;;;;;4.45;66.00;102049.88;6279215;22;20151;-91
2022/02/26 19:34:39;;;;;;;19.08;5.82;;;;;;;4.62;65.64;102070.06;6281115;22;20458;-91
2022/02/26 19:37:06;;;;;;;19.50;5.43;;;;;;;4.72;66.04;102079.75;6281199;22;20015;-91
2022/02/26 19:39:41;;;;;;;15.95;5.50;;;;;;;4.67;66.03;102065.72;6252966;22;20024;-94
2022/02/26 19:42:09;;;;;;;21.02;7.07;;;;;;;4.58;65.49;102053.44;6279922;22;20019;-92
2022/02/26 19:44:41;;;;;;;17.77;6.40;;;;;;;4.69;65.62;102085.88;6281902;22;20044;-92
2022/02/26 19:47:11;;;;;;;17.33;7.50;;;;;;;4.59;66.28;102073.56;6280167;22;20020;-94
2022/02/26 19:49:46;;;;;;;18.50;6.97;;;;;;;4.55;65.89;102077.94;6254162;22;20026;-94
2022/02/26 19:52:21;;;;;;;21.10;6.88;;;;;;;4.35;66.92;102036.72;6279281;22;20054;-91
2022/02/26 19:55:08;;;;;;;18.38;6.97;;;;;;;4.51;66.57;102067.41;6280657;22;20099;-91
2022/02/26 19:57:37;;;;;;;20.45;7.90;;;;;;;4.57;66.91;102091.91;6252441;22;20020;-91
2022/02/26 20:00:07;;;;;;;27.80;9.90;;;;;;;4.52;67.53;102072.66;6278010;22;20023;-91
2022/02/26 20:02:35;;;;;;;21.60;7.60;;;;;;;4.58;67.60;102083.16;6280118;22;20016;-90
2022/02/26 20:05:09;;;;;;;22.30;7.05;;;;;;;4.48;67.89;102064.78;6247904;23;20024;-92
2022/02/26 20:07:39;;;;;;;;;;;;;;;4.67;67.60;102113.84;6252540;22;20024;-91
2022/02/26 20:10:14;;;;;;;17.63;6.20;;;;;;;4.28;68.11;102054.16;6246813;23;19919;-92
2022/02/26 20:12:44;;;;;;;15.77;6.10;;;;;;;4.43;67.93;102090.09;6243210;23;20020;-91
2022/02/26 20:15:27;;;;;;;14.65;6.38;;;;;;;4.40;68.66;102079.59;6247481;23;20020;-91
2022/02/26 20:17:56;;;;;;;16.52;6.13;;;;;;;4.13;69.03;102040.97;6250228;23;20026;-93
2022/02/26 20:20:24;;;;;;;15.82;6.28;;;;;;;4.35;69.47;102082.19;6249002;23;20075;-92
2022/02/26 20:23:07;;;;;;;18.42;7.63;;;;;;;4.29;69.54;102073.41;6249780;23;20651;-91
2022/02/26 20:25:42;;;;;;;;;;;;;;;4.49;69.07;102108.50;6254721;23;20050;-90
2022/02/26 20:28:15;;;;;;;17.70;7.53;;;;;;;4.30;69.93;102081.28;6208773;23;19931;-93
2022/02/26 20:30:47;;;;;;;24.27;8.38;;;;;;;4.21;69.66;102070.75;6251409;23;20027;-93
2022/02/26 20:33:18;;;;;;;19.08;8.07;;;;;;;3.99;70.62;102053.13;6245000;23;20043;-91
2022/02/26 20:36:00;;;;;;;18.45;8.45;;;;;;;3.91;70.63;102041.72;6241866;23;20056;-91
2022/02/26 20:38:31;;;;;;;17.83;8.30;;;;;;;3.95;71.16;102052.22;6244259;23;20012;-92
2022/02/26 21:06:51;;;;;;;15.77;8.50;;;;;;;3.71;73.04;102045.09;6218577;22;20043;-93
2022/02/26 21:09:21;;;;;;;21.80;9.48;;;;;;;3.78;73.25;102067.84;6248543;23;20027;-95
2022/02/26 21:12:09;;;;;;;19.00;8.20;;;;;;;3.77;73.87;102066.09;6228806;23;20829;-93
2022/02/26 21:14:36;;;;;;;20.98;8.40;;;;;;;3.62;73.41;102037.13;6246417;23;20023;-93
2022/02/26 21:17:04;;;;;;;20.85;8.88;;;;;;;3.66;73.63;102057.25;6245828;22;20031;-93
2022/02/26 21:19:32;;;;;;;19.17;8.45;;;;;;;3.53;73.72;102047.56;6243582;22;20047;-93
2022/02/26 21:22:04;;;;;;;20.70;8.02;;;;;;;3.49;73.93;102051.00;6244911;22;20313;-93
2022/02/26 21:24:32;;;;;;;22.42;8.50;;;;;;;3.60;73.32;102080.81;6249971;22;20026;-95
2022/02/26 21:27:06;;;;;;;17.63;8.23;;;;;;;3.40;74.00;102058.81;6256085;23;20600;-94
2022/02/26 21:29:36;;;;;;;17.83;7.82;;;;;;;3.35;74.25;102063.09;6245459;23;20020;-94
2022/02/26 21:32:05;;;;;;;22.63;8.70;;;;;;;3.36;74.37;102081.44;6251323;23;20031;-94
2022/02/26 21:34:34;;;;;;;19.73;8.80;;;;;;;3.13;74.81;102047.22;6254590;23;20012;-93
2022/02/26 21:37:02;;;;;;;20.27;8.50;;;;;;;3.03;75.42;102036.63;6254676;23;20020;-92
2022/02/26 21:39:34;;;;;;;19.50;8.48;;;;;;;3.12;75.41;102040.22;6248442;23;20036;-92
2022/02/26 21:42:06;;;;;;;21.13;8.75;;;;;;;3.23;75.82;102055.16;6241315;23;20051;-93
2022/02/26 21:44:45;;;;;;;21.42;9.00;;;;;;;3.33;75.72;102076.19;6246299;23;20028;-92
2022/02/26 21:47:13;;;;;;;21.08;8.40;;;;;;;3.08;76.38;102027.09;6246539;22;20027;-92
2022/02/26 21:49:43;;;;;;;20.70;9.18;;;;;;;3.25;75.79;102056.03;6245139;22;20016;-92
2022/02/26 21:52:34;;;;;;;22.17;8.77;;;;;;;3.31;76.49;102070.03;6246001;23;20020;-93
2022/02/26 21:55:05;;;;;;;21.33;8.60;;;;;;;3.44;76.59;102100.75;6248068;23;20371;-94
2022/02/26 21:57:33;;;;;;;18.60;9.10;;;;;;;3.16;76.77;102047.22;6247341;22;20336;-93
2022/02/26 22:00:03;;;;;;;22.25;9.90;;;;;;;3.13;76.17;102052.44;6241861;22;20027;-93
2022/02/26 22:02:32;;;;;;;21.85;9.93;;;;;;;3.45;77.18;102093.78;6242922;23;20024;-92
2022/02/26 22:05:00;;;;;;;25.25;9.68;;;;;;;3.39;77.66;102080.59;6247216;22;20017;-94
2022/02/26 22:07:32;;;;;;;22.38;9.98;;;;;;;3.36;77.25;102057.88;6269616;22;20020;-92
2022/02/26 22:10:02;;;;;;;26.27;10.30;;;;;;;3.38;76.72;102055.28;6277004;22;20024;-94
2022/02/26 22:12:28;;;;;;;26.95;11.25;;;;;;;3.51;76.70;102054.53;6276714;22;20102;-92
2022/02/26 22:14:57;;;;;;;21.77;11.00;;;;;;;3.59;77.38;102071.19;6251626;22;20016;-92
2022/02/26 22:17:25;;;;;;;26.40;11.25;;;;;;;3.63;76.92;102093.91;6252462;22;20097;-92
2022/02/26 22:20:05;;;;;;;24.73;10.50;;;;;;;3.21;77.55;102023.72;6253952;22;20440;-92
2022/02/26 22:22:39;;;;;;;23.63;10.27;;;;;;;3.22;77.69;102030.72;6282195;22;20095;-92
2022/02/26 22:25:14;;;;;;;20.08;9.60;;;;;;;3.28;77.71;102036.00;6255309;22;20343;-91
2022/02/26 23:10:10;;;;;;;17.65;7.95;;;;;;;3.40;78.28;102045.72;6081420;23;20022;-92
2022/02/26 23:13:13;;;;;;;23.90;9.20;;;;;;;3.39;78.26;102060.53;6076162;23;20019;-92
2022/02/26 23:16:06;;;;;;;20.00;8.18;;;;;;;3.40;78.94;102067.53;6093974;23;20568;-94
2022/02/26 23:19:05;;;;;;;23.50;7.85;;;;;;;3.35;78.57;102063.09;6102252;23;20023;-91
2022/02/26 23:21:46;;;;;;;22.65;7.80;;;;;;;3.31;78.90;102050.84;6246980;23;20525;-93
2022/02/26 23:24:55;;;;;;;18.63;8.27;;;;;;;3.43;78.55;102083.28;6200362;23;20020;-93
2022/02/26 23:27:34;;;;;;;17.25;8.32;;;;;;;3.36;78.37;102089.31;6247464;23;20028;-94
2022/02/26 23:30:18;;;;;;;19.85;8.02;;;;;;;3.11;78.56;102056.78;6246783;23;20020;-94
2022/02/26 23:33:11;;;;;;;20.73;8.48;;;;;;;3.25;79.11;102077.88;6218696;23;20013;-93
2022/02/26 23:35:49;;;;;;;19.85;8.20;;;;;;;3.01;78.57;102043.56;6246628;23;20502;-92
2022/02/26 23:38:34;;;;;;;23.35;8.95;;;;;;;3.04;79.40;102052.34;6244352;23;20094;-92
2022/02/26 23:41:17;;;;;;;21.90;8.52;;;;;;;2.92;79.86;102043.50;6168088;23;20020;-92
2022/02/26 23:43:52;;;;;;;19.85;8.35;;;;;;;2.80;79.81;102044.25;6225011;23;20012;-93
2022/02/26 23:46:31;;;;;;;18.45;7.63;;;;;;;2.60;80.23;102019.59;6252902;23;20039;-93
2022/02/26 23:49:07;;;;;;;23.17;7.43;;;;;;;2.89;79.94;102086.19;6223016;23;20020;-92
2022/02/26 23:51:44;;;;;;;20.35;8.05;;;;;;;2.55;80.31;102026.50;6275297;22;20026;-95
2022/02/26 23:54:23;;;;;;;22.20;8.02;;;;;;;2.48;80.73;102028.19;6278092;22;20069;-93
2022/02/26 23:56:53;;;;;;;23.45;7.88;;;;;;;2.39;80.68;102023.69;6292605;22;20010;-94
2022/02/26 23:59:25;;;;;;;18.27;8.15;;;;;;;2.59;80.83;102059.69;6298940;22;20019;-94
